createdAt,value
2022-09-24T00:01:39.486Z,15.00
2022-09-24T00:04:09.569Z,15.10
2022-09-24T00:06:40.845Z,14.80
2022-09-24T00:09:08.608Z,15.20
2022-09-24T00:11:39.103Z,14.80
2022-09-24T00:14:07.607Z,15.10
2022-09-24T00:16:35.810Z,15.20
2022-09-24T00:19:05.211Z,15.20
2022-09-24T00:21:35.540Z,14.90
2022-09-24T00:24:06.637Z,14.80
2022-09-24T00:26:52.161Z,14.80
2022-09-24T00:29:23.797Z,15.10
2022-09-24T00:31:53.280Z,14.90
2022-09-24T00:34:21.667Z,15.00
2022-09-24T00:36:49.462Z,14.80
2022-09-24T00:39:17.989Z,14.70
2022-09-24T00:41:48.784Z,14.70
2022-09-24T00:44:48.664Z,14.90
2022-09-24T00:47:25.969Z,14.70
2022-09-24T00:49:57.215Z,14.80
2022-09-24T00:52:24.936Z,14.80
2022-09-24T00:54:53.635Z,14.80
2022-09-24T00:57:21.433Z,14.60
2022-09-24T00:59:50.749Z,14.50
2022-09-24T01:02:18.572Z,14.70
2022-09-24T01:04:48.330Z,14.90
2022-09-24T01:07:16.204Z,14.80
2022-09-24T01:09:44.105Z,14.70
2022-09-24T01:12:18.502Z,14.90
2022-09-24T01:15:04.829Z,14.40
2022-09-24T01:17:40.713Z,14.40
2022-09-24T01:20:39.675Z,14.70
2022-09-24T01:23:25.648Z,14.30
2022-09-24T01:26:09.243Z,14.30
2022-09-24T01:28:45.321Z,14.70
2022-09-24T01:31:21.321Z,14.20
2022-09-24T01:33:53.321Z,14.60
2022-09-24T01:36:22.740Z,14.20
2022-09-24T01:38:53.191Z,14.10
2022-09-24T01:41:22.603Z,14.20
2022-09-24T01:43:50.700Z,14.40
2022-09-24T01:46:21.377Z,14.50
2022-09-24T01:48:50.289Z,14.30
2022-09-24T01:51:22.837Z,14.40
2022-09-24T01:53:56.048Z,14.50
2022-09-24T01:56:27.660Z,14.40
2022-09-24T01:59:00.393Z,14.10
2022-09-24T02:01:33.369Z,14.20
2022-09-24T02:04:07.152Z,14.20
2022-09-24T02:06:38.961Z,14.20
2022-09-24T02:09:07.067Z,13.90
2022-09-24T02:11:37.822Z,13.90
2022-09-24T02:14:10.449Z,14.00
2022-09-24T02:16:45.824Z,13.80
2022-09-24T02:19:17.567Z,13.80
2022-09-24T02:21:47.031Z,14.00
2022-09-24T02:24:18.164Z,14.00
2022-09-24T02:26:46.231Z,14.10
2022-09-24T02:29:14.627Z,14.00
2022-09-24T02:31:47.575Z,14.00
2022-09-24T02:34:21.408Z,13.80
2022-09-24T02:36:50.090Z,13.60
2022-09-24T02:39:18.373Z,13.90
2022-09-24T02:41:48.008Z,13.70
2022-09-24T02:44:16.417Z,13.60
2022-09-24T02:46:52.832Z,13.50
2022-09-24T02:49:20.580Z,13.70
2022-09-24T02:51:48.285Z,13.60
2022-09-24T02:54:16.056Z,13.40
2022-09-24T02:56:43.832Z,13.60
2022-09-24T02:59:12.198Z,13.60
2022-09-24T03:01:40.410Z,13.60
2022-09-24T03:04:09.938Z,13.60
2022-09-24T03:06:37.730Z,13.40
2022-09-24T03:09:06.093Z,13.60
2022-09-24T03:11:35.534Z,13.30
2022-09-24T03:14:03.268Z,13.60
2022-09-24T03:16:31.029Z,13.50
2022-09-24T03:18:58.741Z,13.60
2022-09-24T03:21:27.942Z,13.50
2022-09-24T03:23:55.755Z,13.70
2022-09-24T03:26:23.469Z,13.30
2022-09-24T03:28:51.223Z,13.50
2022-09-24T03:31:18.030Z,13.30
2022-09-24T03:33:47.157Z,13.20
2022-09-24T03:36:17.404Z,13.30
2022-09-24T03:38:48.334Z,13.40
2022-09-24T03:41:17.113Z,13.30
2022-09-24T03:43:44.965Z,13.30
2022-09-24T03:46:13.681Z,13.20
2022-09-24T03:48:42.495Z,13.20
2022-09-24T03:51:12.428Z,13.20
2022-09-24T03:53:40.627Z,13.20
2022-09-24T03:56:11.787Z,13.20
2022-09-24T03:58:41.247Z,13.00
2022-09-24T04:01:12.002Z,13.00
2022-09-24T04:03:40.408Z,12.80
2022-09-24T04:06:08.624Z,13.00
2022-09-24T04:08:36.483Z,12.80
2022-09-24T04:11:04.393Z,12.80
2022-09-24T04:13:33.483Z,12.90
2022-09-24T04:16:03.196Z,13.00
2022-09-24T04:18:33.616Z,13.10
2022-09-24T04:21:03.788Z,12.90
2022-09-24T04:23:32.045Z,12.70
2022-09-24T04:26:00.608Z,13.00
2022-09-24T04:28:28.863Z,12.90
2022-09-24T04:30:58.056Z,12.80
2022-09-24T04:33:25.837Z,12.80
2022-09-24T04:35:53.678Z,12.70
2022-09-24T04:38:21.878Z,12.40
2022-09-24T04:40:49.972Z,12.50
2022-09-24T04:43:18.988Z,12.60
2022-09-24T04:45:47.615Z,12.40
2022-09-24T04:48:17.171Z,12.40
2022-09-24T04:50:46.448Z,12.40
2022-09-24T04:53:14.746Z,12.20
2022-09-24T04:55:42.511Z,11.80
2022-09-24T04:58:10.725Z,12.30
2022-09-24T05:00:38.483Z,12.00
2022-09-24T05:03:06.669Z,12.20
2022-09-24T05:05:36.623Z,12.30
2022-09-24T05:08:04.747Z,11.70
2022-09-24T05:10:33.175Z,12.00
2022-09-24T05:13:02.043Z,11.90
2022-09-24T05:15:29.755Z,11.90
2022-09-24T05:17:57.460Z,12.20
2022-09-24T05:20:25.578Z,12.10
2022-09-24T05:22:54.972Z,12.50
2022-09-24T05:25:23.380Z,12.50
2022-09-24T05:27:51.867Z,12.50
2022-09-24T05:30:21.184Z,12.30
2022-09-24T05:32:51.786Z,12.30
2022-09-24T05:35:19.988Z,12.50
2022-09-24T05:37:49.417Z,12.40
2022-09-24T05:40:36.230Z,12.50
2022-09-24T05:43:05.118Z,12.30
2022-09-24T05:45:33.490Z,12.60
2022-09-24T05:48:01.591Z,12.90
2022-09-24T05:50:29.324Z,12.90
2022-09-24T05:52:57.060Z,12.70
2022-09-24T05:55:30.175Z,12.70
2022-09-24T05:58:04.367Z,12.90
2022-09-24T06:00:32.321Z,12.90
2022-09-24T06:03:05.320Z,12.80
2022-09-24T06:05:34.169Z,13.00
2022-09-24T06:08:02.546Z,13.10
2022-09-24T06:10:31.868Z,13.00
2022-09-24T06:12:59.565Z,13.30
2022-09-24T06:15:27.532Z,13.20
2022-09-24T06:17:55.583Z,13.30
2022-09-24T06:20:23.658Z,13.20
2022-09-24T06:22:52.347Z,13.40
2022-09-24T06:25:20.058Z,13.60
2022-09-24T06:27:56.024Z,13.50
2022-09-24T06:30:23.618Z,13.50
2022-09-24T06:32:51.321Z,13.40
2022-09-24T06:35:20.413Z,13.70
2022-09-24T06:37:49.181Z,13.60
2022-09-24T06:40:17.412Z,13.50
2022-09-24T06:42:45.168Z,13.70
2022-09-24T06:45:14.632Z,14.00
2022-09-24T06:47:42.309Z,13.80
2022-09-24T06:50:10.559Z,13.80
2022-09-24T06:52:38.259Z,14.30
2022-09-24T06:55:06.972Z,14.20
2022-09-24T06:57:34.652Z,14.30
2022-09-24T07:00:02.692Z,14.40
2022-09-24T07:02:31.777Z,14.20
2022-09-24T07:04:59.480Z,14.50
2022-09-24T07:07:34.117Z,15.00
2022-09-24T07:10:03.620Z,14.80
2022-09-24T07:12:32.951Z,14.90
2022-09-24T07:15:01.356Z,14.60
2022-09-24T07:17:33.894Z,14.20
2022-09-24T07:20:02.405Z,14.70
2022-09-24T07:22:30.093Z,14.70
2022-09-24T07:24:57.788Z,14.70
2022-09-24T07:27:25.492Z,14.90
2022-09-24T07:29:53.181Z,15.20
2022-09-24T07:32:20.869Z,15.30
2022-09-24T07:34:49.881Z,15.90
2022-09-24T07:37:17.541Z,16.30
2022-09-24T07:39:45.547Z,16.60
2022-09-24T07:42:13.206Z,17.00
2022-09-24T07:44:41.015Z,17.60
2022-09-24T07:47:13.355Z,17.30
2022-09-24T07:49:43.248Z,17.00
2022-09-24T07:52:12.473Z,16.80
2022-09-24T07:54:40.532Z,16.80
2022-09-24T07:57:13.468Z,16.60
2022-09-24T07:59:41.642Z,16.80
2022-09-24T08:02:16.258Z,16.70
2022-09-24T08:04:44.236Z,17.30
2022-09-24T08:07:14.143Z,18.00
2022-09-24T08:09:41.908Z,19.00
2022-09-24T08:12:10.965Z,19.40
2022-09-24T08:14:38.641Z,19.90
2022-09-24T08:17:06.330Z,20.30
2022-09-24T08:19:34.365Z,20.60
2022-09-24T08:22:02.062Z,21.30
2022-09-24T08:24:31.745Z,21.80
2022-09-24T08:26:59.665Z,22.10
2022-09-24T08:29:27.341Z,22.10
2022-09-24T08:31:55.039Z,21.70
2022-09-24T08:34:22.795Z,21.50
2022-09-24T08:36:50.614Z,21.30
2022-09-24T08:39:18.327Z,21.00
2022-09-24T08:41:56.002Z,20.80
2022-09-24T08:44:47.662Z,20.70
2022-09-24T08:47:24.635Z,20.60
2022-09-24T08:50:03.130Z,20.10
2022-09-24T08:52:41.629Z,19.80
2022-09-24T08:55:16.049Z,19.40
2022-09-24T08:57:55.848Z,19.50
2022-09-24T09:00:23.604Z,18.80
2022-09-24T09:02:59.372Z,19.00
2022-09-24T09:05:35.303Z,18.90
2022-09-24T09:08:27.548Z,18.70
2022-09-24T09:11:01.601Z,18.70
2022-09-24T09:13:37.127Z,19.00
2022-09-24T09:16:08.111Z,19.00
2022-09-24T09:18:41.259Z,19.60
2022-09-24T09:21:17.607Z,19.90
2022-09-24T09:23:49.455Z,20.30
2022-09-24T09:26:20.068Z,21.00
2022-09-24T09:28:49.794Z,20.90
2022-09-24T09:31:29.479Z,20.70
2022-09-24T09:34:18.485Z,20.20
2022-09-24T09:36:58.969Z,20.00
2022-09-24T09:39:37.483Z,19.30
2022-09-24T09:42:23.039Z,19.00
2022-09-24T09:44:52.529Z,18.60
2022-09-24T09:47:27.239Z,18.30
2022-09-24T09:49:58.745Z,18.40
2022-09-24T09:52:31.057Z,18.60
2022-09-24T09:54:59.117Z,18.50
2022-09-24T09:57:27.318Z,18.40
2022-09-24T09:59:56.917Z,18.50
2022-09-24T10:02:28.246Z,18.50
2022-09-24T10:04:57.717Z,18.80
2022-09-24T10:07:25.668Z,19.00
2022-09-24T10:10:03.775Z,19.10
2022-09-24T10:12:31.878Z,19.40
2022-09-24T10:15:03.090Z,19.60
2022-09-24T10:17:35.633Z,20.30
2022-09-24T10:20:09.416Z,21.10
2022-09-24T10:22:39.314Z,21.40
2022-09-24T10:25:07.732Z,21.60
2022-09-24T10:27:38.089Z,21.80
2022-09-24T10:30:35.893Z,21.80
2022-09-24T10:33:06.115Z,21.40
2022-09-24T10:35:38.353Z,20.60
2022-09-24T10:38:17.696Z,20.30
2022-09-24T10:40:45.853Z,20.00
2022-09-24T10:43:18.893Z,19.90
2022-09-24T10:46:01.215Z,20.00
2022-09-24T10:48:35.983Z,20.10
2022-09-24T10:51:12.938Z,19.70
2022-09-24T10:53:50.768Z,19.80
2022-09-24T10:56:27.944Z,20.00
2022-09-24T10:59:27.865Z,20.00
2022-09-24T11:02:15.040Z,19.70
2022-09-24T11:04:51.503Z,20.20
2022-09-24T11:07:55.014Z,21.00
2022-09-24T11:10:32.703Z,21.60
2022-09-24T11:13:15.365Z,21.90
2022-09-24T11:16:04.518Z,21.70
2022-09-24T11:18:41.704Z,21.60
2022-09-24T11:21:24.264Z,21.50
2022-09-24T11:24:13.742Z,21.70
2022-09-24T11:26:55.200Z,21.80
2022-09-24T11:29:37.182Z,21.90
2022-09-24T11:32:13.771Z,21.60
2022-09-24T11:34:55.460Z,21.20
2022-09-24T11:37:39.530Z,20.80
2022-09-24T11:40:22.661Z,20.50
2022-09-24T11:43:01.879Z,20.10
2022-09-24T11:45:43.251Z,19.80
2022-09-24T11:48:43.628Z,20.00
2022-09-24T11:51:23.841Z,20.00
2022-09-24T11:53:58.200Z,19.60
2022-09-24T11:56:31.084Z,20.00
2022-09-24T11:59:03.756Z,19.70
2022-09-24T12:01:34.634Z,19.80
2022-09-24T12:04:10.349Z,19.70
2022-09-24T12:06:47.238Z,19.60
2022-09-24T12:09:20.493Z,19.30
2022-09-24T12:11:55.005Z,19.50
2022-09-24T12:14:26.247Z,19.30
2022-09-24T12:16:59.111Z,19.50
2022-09-24T12:19:32.512Z,19.90
2022-09-24T12:22:04.242Z,20.00
2022-09-24T12:24:36.992Z,20.40
2022-09-24T12:27:12.301Z,20.70
2022-09-24T12:30:05.216Z,20.60
2022-09-24T12:32:57.720Z,21.10
2022-09-24T12:35:41.004Z,21.50
2022-09-24T12:38:15.338Z,21.60
2022-09-24T12:41:20.007Z,21.70
2022-09-24T12:43:52.582Z,21.60
2022-09-24T12:46:23.738Z,21.60
2022-09-24T12:48:53.347Z,21.50
2022-09-24T12:51:23.723Z,21.50
2022-09-24T12:54:01.236Z,21.00
2022-09-24T12:56:31.184Z,20.80
2022-09-24T12:58:59.569Z,20.80
2022-09-24T13:01:30.354Z,21.20
2022-09-24T13:04:25.932Z,21.00
2022-09-24T13:06:54.647Z,20.70
2022-09-24T13:09:36.833Z,20.80
2022-09-24T13:12:19.773Z,20.70
2022-09-24T13:14:52.649Z,20.50
2022-09-24T13:17:20.432Z,20.20
2022-09-24T13:19:51.596Z,20.30
2022-09-24T13:22:26.134Z,20.20
2022-09-24T13:25:19.110Z,20.10
2022-09-24T13:27:58.172Z,19.60
2022-09-24T13:30:35.217Z,20.10
2022-09-24T13:33:10.672Z,19.80
2022-09-24T13:35:45.261Z,20.10
2022-09-24T13:38:21.683Z,20.00
2022-09-24T13:40:58.517Z,20.30
2022-09-24T13:43:37.831Z,20.20
2022-09-24T13:46:12.013Z,20.10
2022-09-24T13:48:43.669Z,20.00
2022-09-24T13:51:14.895Z,20.00
2022-09-24T13:53:48.152Z,19.90
2022-09-24T13:56:20.243Z,20.00
2022-09-24T13:58:51.236Z,19.70
2022-09-24T14:01:22.059Z,20.40
2022-09-24T14:03:55.279Z,20.50
2022-09-24T14:06:34.490Z,20.60
2022-09-24T14:09:02.544Z,20.70
2022-09-24T14:11:31.679Z,20.70
2022-09-24T14:14:11.329Z,20.80
2022-09-24T14:16:39.025Z,20.80
2022-09-24T14:19:07.178Z,20.10
2022-09-24T14:21:38.220Z,20.50
2022-09-24T14:24:10.086Z,20.80
2022-09-24T14:26:42.674Z,20.70
2022-09-24T14:29:15.955Z,20.70
2022-09-24T14:31:47.144Z,20.70
2022-09-24T14:34:25.188Z,20.70
2022-09-24T14:36:54.043Z,20.40
2022-09-24T14:39:25.145Z,20.40
2022-09-24T14:41:55.910Z,20.20
2022-09-24T14:44:26.367Z,20.70
2022-09-24T14:46:57.687Z,20.40
2022-09-24T14:49:27.525Z,20.40
2022-09-24T14:51:57.539Z,20.30
2022-09-24T14:54:32.566Z,20.30
2022-09-24T14:57:12.884Z,20.20
2022-09-24T14:59:41.572Z,20.10
2022-09-24T15:02:18.835Z,20.10
2022-09-24T15:04:49.027Z,20.00
2022-09-24T15:07:18.766Z,20.10
2022-09-24T15:09:51.292Z,19.70
2022-09-24T15:12:24.717Z,20.00
2022-09-24T15:14:57.126Z,19.80
2022-09-24T15:17:29.840Z,20.00
2022-09-24T15:19:57.991Z,20.00
2022-09-24T15:22:26.772Z,20.00
2022-09-24T15:25:00.284Z,20.10
2022-09-24T15:27:32.525Z,19.80
2022-09-24T15:30:01.597Z,20.00
2022-09-24T15:32:30.877Z,20.00
2022-09-24T15:34:58.793Z,19.70
2022-09-24T15:37:27.918Z,19.90
2022-09-24T15:39:59.993Z,19.90
2022-09-24T15:42:28.196Z,19.90
2022-09-24T15:44:58.942Z,19.90
2022-09-24T15:47:26.659Z,19.90
2022-09-24T15:49:54.358Z,19.70
2022-09-24T15:52:26.067Z,19.80
2022-09-24T15:54:55.104Z,19.80
2022-09-24T15:57:23.455Z,20.00
2022-09-24T15:59:51.527Z,19.80
2022-09-24T16:02:25.867Z,20.20
2022-09-24T16:04:54.082Z,20.00
2022-09-24T16:07:21.787Z,20.40
2022-09-24T16:09:49.650Z,20.20
2022-09-24T16:12:18.125Z,19.90
2022-09-24T16:14:46.092Z,19.80
2022-09-24T16:17:13.895Z,19.70
2022-09-24T16:19:42.909Z,19.90
2022-09-24T16:22:10.602Z,19.80
2022-09-24T16:24:38.295Z,20.00
2022-09-24T16:27:05.979Z,19.50
2022-09-24T16:29:33.688Z,19.20
2022-09-24T16:32:02.067Z,19.80
2022-09-24T16:34:29.872Z,19.60
2022-09-24T16:36:58.899Z,19.30
2022-09-24T16:39:26.676Z,19.40
2022-09-24T16:41:54.673Z,19.40
2022-09-24T16:44:22.367Z,19.50
2022-09-24T16:46:50.914Z,19.10
2022-09-24T16:49:19.292Z,19.30
2022-09-24T16:51:47.032Z,19.40
2022-09-24T16:54:16.047Z,19.50
2022-09-24T16:56:43.723Z,19.60
2022-09-24T16:59:11.857Z,19.30
2022-09-24T17:01:42.240Z,19.20
2022-09-24T17:04:10.240Z,19.10
2022-09-24T17:06:38.022Z,19.00
2022-09-24T17:09:23.139Z,19.00
2022-09-24T17:11:52.311Z,18.80
2022-09-24T17:14:20.056Z,18.60
2022-09-24T17:16:47.776Z,18.70
2022-09-24T17:19:16.168Z,18.70
2022-09-24T17:21:45.910Z,18.90
2022-09-24T17:24:17.858Z,19.00
2022-09-24T17:26:49.040Z,18.80
2022-09-24T17:29:20.480Z,18.60
2022-09-24T17:31:48.260Z,18.40
2022-09-24T17:34:15.995Z,18.60
2022-09-24T17:36:43.889Z,18.40
2022-09-24T17:39:13.432Z,18.20
2022-09-24T17:41:41.424Z,18.50
2022-09-24T17:44:10.590Z,18.00
2022-09-24T17:46:39.650Z,18.10
2022-09-24T17:49:07.548Z,18.30
2022-09-24T17:51:37.641Z,18.40
2022-09-24T17:54:07.973Z,18.10
2022-09-24T17:56:38.675Z,18.20
2022-09-24T17:59:07.846Z,18.20
2022-09-24T18:01:37.384Z,18.00
2022-09-24T18:04:08.077Z,17.80
2022-09-24T18:06:38.313Z,17.90
2022-09-24T18:09:06.404Z,17.80
2022-09-24T18:11:39.075Z,17.40
2022-09-24T18:14:06.837Z,17.60
2022-09-24T18:16:34.936Z,17.20
2022-09-24T18:19:03.547Z,16.90
2022-09-24T18:21:32.827Z,17.00
2022-09-24T18:24:01.496Z,16.80
2022-09-24T18:26:32.253Z,16.80
2022-09-24T18:29:01.719Z,16.80
2022-09-24T18:31:30.823Z,16.80
2022-09-24T18:34:03.795Z,16.60
2022-09-24T18:36:34.278Z,16.60
2022-09-24T18:39:02.551Z,16.50
2022-09-24T18:41:31.982Z,16.70
2022-09-24T18:44:00.412Z,16.30
2022-09-24T18:46:31.511Z,16.40
2022-09-24T18:49:00.328Z,16.30
2022-09-24T18:51:29.695Z,16.40
2022-09-24T18:54:00.103Z,16.00
2022-09-24T18:56:28.609Z,15.90
2022-09-24T18:58:57.245Z,16.00
2022-09-24T19:01:26.998Z,16.00
2022-09-24T19:03:55.336Z,16.00
2022-09-24T19:06:23.240Z,15.70
2022-09-24T19:08:51.065Z,16.10
2022-09-24T19:11:21.377Z,15.90
2022-09-24T19:13:51.173Z,15.60
2022-09-24T19:16:20.528Z,15.30
2022-09-24T19:18:48.440Z,15.50
2022-09-24T19:21:16.739Z,15.50
2022-09-24T19:23:46.218Z,15.50
2022-09-24T19:26:16.028Z,15.30
2022-09-24T19:28:45.933Z,15.10
2022-09-24T19:31:16.630Z,15.20
2022-09-24T19:33:45.011Z,15.10
2022-09-24T19:36:13.357Z,14.80
2022-09-24T19:38:42.155Z,14.60
2022-09-24T19:41:14.874Z,14.70
2022-09-24T19:43:44.995Z,14.70
2022-09-24T19:46:16.722Z,14.50
2022-09-24T19:48:46.423Z,14.40
2022-09-24T19:51:16.193Z,14.30
2022-09-24T19:53:44.428Z,14.30
2022-09-24T19:56:14.217Z,14.20
2022-09-24T19:58:41.959Z,14.30
2022-09-24T20:01:16.297Z,14.00
2022-09-24T20:03:46.118Z,13.90
2022-09-24T20:06:17.217Z,14.70
2022-09-24T20:08:46.587Z,14.60
2022-09-24T20:11:17.085Z,14.60
2022-09-24T20:13:46.079Z,14.50
2022-09-24T20:16:19.013Z,14.40
2022-09-24T20:18:47.247Z,14.20
2022-09-24T20:21:17.078Z,13.90
2022-09-24T20:23:45.626Z,14.70
2022-09-24T20:26:31.625Z,14.60
2022-09-24T20:28:59.670Z,14.70
2022-09-24T20:31:29.797Z,14.40
2022-09-24T20:33:58.407Z,14.70
2022-09-24T20:36:26.364Z,14.80
2022-09-24T20:38:54.304Z,15.00
2022-09-24T20:41:25.072Z,14.90
2022-09-24T20:43:55.065Z,14.80
2022-09-24T20:46:24.871Z,14.70
2022-09-24T20:48:57.988Z,14.80
2022-09-24T20:51:27.185Z,14.80
2022-09-24T20:53:55.220Z,14.70
2022-09-24T20:56:23.439Z,14.90
2022-09-24T20:58:52.901Z,14.80
2022-09-24T21:01:21.387Z,14.70
2022-09-24T21:03:50.001Z,14.70
2022-09-24T21:06:22.600Z,14.90
2022-09-24T21:08:50.691Z,14.70
2022-09-24T21:11:20.829Z,14.80
2022-09-24T21:13:51.426Z,14.90
2022-09-24T21:16:20.990Z,14.90
2022-09-24T21:18:49.851Z,14.80
2022-09-24T21:21:20.532Z,15.10
2022-09-24T21:23:49.694Z,14.90
2022-09-24T21:26:19.133Z,14.80
2022-09-24T21:28:48.123Z,14.90
2022-09-24T21:31:16.128Z,14.70
2022-09-24T21:33:47.097Z,14.60
2022-09-24T21:36:18.413Z,14.80
2022-09-24T21:38:54.142Z,14.70
2022-09-24T21:41:22.980Z,15.10
2022-09-24T21:43:50.995Z,15.00
2022-09-24T21:46:18.827Z,14.80
2022-09-24T21:48:46.722Z,14.80
2022-09-24T21:51:19.345Z,14.80
2022-09-24T21:53:48.511Z,14.80
2022-09-24T21:56:18.766Z,14.80
2022-09-24T21:58:46.847Z,14.70
2022-09-24T22:01:17.319Z,14.60
2022-09-24T22:03:46.560Z,14.60
2022-09-24T22:06:15.250Z,14.60
2022-09-24T22:08:45.335Z,14.30
2022-09-24T22:11:15.694Z,14.40
2022-09-24T22:13:43.478Z,14.70
2022-09-24T22:16:12.304Z,14.60
2022-09-24T22:18:40.905Z,14.90
2022-09-24T22:21:10.491Z,14.70
2022-09-24T22:23:38.725Z,14.00
2022-09-24T22:26:08.005Z,14.40
2022-09-24T22:28:38.095Z,14.40
2022-09-24T22:31:07.840Z,14.50
2022-09-24T22:33:53.911Z,14.70
2022-09-24T22:36:21.939Z,14.80
2022-09-24T22:38:52.997Z,14.90
2022-09-24T22:41:21.256Z,15.00
2022-09-24T22:43:50.427Z,14.90
2022-09-24T22:46:18.295Z,14.90
2022-09-24T22:48:47.244Z,14.80
2022-09-24T22:51:16.111Z,14.90
2022-09-24T22:53:43.838Z,15.10
2022-09-24T22:56:13.641Z,14.90
2022-09-24T22:58:43.220Z,14.80
2022-09-24T23:01:16.678Z,15.00
2022-09-24T23:03:45.660Z,15.00
2022-09-24T23:06:13.651Z,14.80
2022-09-24T23:08:42.587Z,15.10
2022-09-24T23:11:12.084Z,15.00
2022-09-24T23:13:41.180Z,15.30
2022-09-24T23:16:12.894Z,14.80
2022-09-24T23:18:42.266Z,14.90
2022-09-24T23:21:12.197Z,15.00
2022-09-24T23:23:39.949Z,15.00
2022-09-24T23:26:16.277Z,14.90
2022-09-24T23:28:45.679Z,15.10
2022-09-24T23:31:15.983Z,15.20
2022-09-24T23:33:44.282Z,14.70
2022-09-24T23:36:14.236Z,15.00
2022-09-24T23:38:42.842Z,15.10
2022-09-24T23:41:11.879Z,14.90
2022-09-24T23:43:39.689Z,14.90
2022-09-24T23:46:07.920Z,15.10
2022-09-24T23:48:37.320Z,15.10
2022-09-24T23:51:05.271Z,15.00
2022-09-24T23:53:34.174Z,14.40
2022-09-24T23:56:03.334Z,15.00
2022-09-24T23:58:31.656Z,15.20
